Time;durP1;ratioP1;P1;durP2;ratioP2;P2;SDS_P1;SDS_P2;PMS_P1;PMS_P2;Temp;Humidity;BMP_temperature;BMP_pressure;BME280_temperature;BME280_humidity;BME280_pressure;Samples;Min_cycle;Max_cycle;Signal;HPM_P1;HPM_P2
2022/03/17 00:00:13;;;;;;;61.80;37.45;;;9.00;97.30;;;;;;5012310;28;20033;-71
2022/03/17 00:02:40;;;;;;;63.35;37.95;;;8.90;97.20;;;;;;5014267;28;20040;-71
2022/03/17 00:05:09;;;;;;;63.20;36.70;;;8.90;97.40;;;;;;5020583;28;20108;-71
2022/03/17 00:07:36;;;;;;;60.03;34.25;;;8.90;97.30;;;;;;5025779;28;20513;-71
2022/03/17 00:10:07;;;;;;;59.58;35.03;;;8.90;97.20;;;;;;5027500;28;20021;-71
2022/03/17 00:12:33;;;;;;;59.15;37.03;;;9.00;97.30;;;;;;5021903;28;20044;-71
2022/03/17 00:14:59;;;;;;;62.85;37.85;;;9.00;97.20;;;;;;5027548;28;20026;-71
2022/03/17 00:17:26;;;;;;;60.60;34.47;;;9.00;97.20;;;;;;5023172;28;20494;-71
2022/03/17 00:19:52;;;;;;;60.28;34.78;;;9.00;97.20;;;;;;5027230;28;20028;-71
2022/03/17 00:22:18;;;;;;;59.15;36.42;;;9.00;97.20;;;;;;5020623;28;20048;-71
2022/03/17 00:24:44;;;;;;;65.38;35.95;;;8.90;97.20;;;;;;5022786;28;20461;-71
2022/03/17 00:27:10;;;;;;;60.97;37.00;;;8.90;97.30;;;;;;5027306;28;20037;-70
2022/03/17 00:29:36;;;;;;;67.20;35.00;;;8.90;97.30;;;;;;5027605;28;20037;-71
2022/03/17 00:32:03;;;;;;;54.33;34.38;;;8.90;97.30;;;;;;5024056;28;20421;-71
2022/03/17 00:34:29;;;;;;;62.50;35.90;;;9.00;97.30;;;;;;5025577;28;20068;-71
2022/03/17 00:36:55;;;;;;;64.88;35.58;;;8.90;97.30;;;;;;5025340;28;20053;-70
2022/03/17 00:39:21;;;;;;;61.67;36.35;;;8.90;97.40;;;;;;5025477;28;20063;-71
2022/03/17 00:41:47;;;;;;;63.40;34.97;;;8.90;97.40;;;;;;5023762;28;20534;-71
2022/03/17 00:44:12;;;;;;;58.30;35.13;;;8.90;97.50;;;;;;5025738;28;20029;-71
2022/03/17 00:46:39;;;;;;;59.80;35.42;;;8.80;97.50;;;;;;5028718;28;20025;-71
2022/03/17 00:49:05;;;;;;;66.97;37.95;;;8.80;97.60;;;;;;5031895;28;20113;-71
2022/03/17 00:51:31;;;;;;;62.38;36.58;;;8.80;97.60;;;;;;5030448;28;20147;-71
2022/03/17 00:53:57;;;;;;;65.28;35.60;;;8.80;97.60;;;;;;5030542;28;20048;-71
2022/03/17 00:56:23;;;;;;;65.95;36.30;;;8.80;97.70;;;;;;5032184;28;20029;-71
2022/03/17 00:58:49;;;;;;;68.28;37.08;;;8.80;97.70;;;;;;5029709;28;20480;-71
2022/03/17 01:01:18;;;;;;;66.43;38.08;;;8.80;97.80;;;;;;5026452;28;20042;-71
2022/03/17 01:03:45;;;;;;;63.25;37.33;;;8.70;97.70;;;;;;5030554;28;20438;-71
2022/03/17 01:06:11;;;;;;;70.05;36.60;;;8.70;97.80;;;;;;5030796;28;20471;-71
2022/03/17 01:08:37;;;;;;;59.63;36.03;;;8.70;98.00;;;;;;5032682;28;20101;-71
2022/03/17 01:11:04;;;;;;;61.63;35.13;;;8.70;97.80;;;;;;5029579;28;20553;-71
2022/03/17 01:13:30;;;;;;;66.97;36.65;;;8.70;97.90;;;;;;5029276;28;20056;-71
2022/03/17 01:15:56;;;;;;;56.53;34.47;;;8.70;97.90;;;;;;5024875;28;20033;-71
2022/03/17 01:18:22;;;;;;;59.10;35.08;;;8.60;98.00;;;;;;5030827;28;20041;-71
2022/03/17 01:20:49;;;;;;;59.70;37.38;;;8.70;98.00;;;;;;5031469;28;20037;-71
2022/03/17 01:23:15;;;;;;;59.25;35.50;;;8.80;97.80;;;;;;5030054;28;20037;-71
2022/03/17 01:25:40;;;;;;;63.83;35.13;;;8.70;98.00;;;;;;5028231;28;20033;-71
2022/03/17 01:28:06;;;;;;;62.90;34.40;;;8.70;98.10;;;;;;5029784;28;20112;-71
2022/03/17 01:30:32;;;;;;;57.47;34.60;;;8.60;98.00;;;;;;5031413;28;20483;-71
2022/03/17 01:32:57;;;;;;;57.88;35.78;;;8.60;98.10;;;;;;5027998;28;20033;-71
2022/03/17 01:35:23;;;;;;;60.60;35.72;;;8.50;98.20;;;;;;5031315;28;20096;-70
2022/03/17 01:37:49;;;;;;;62.47;36.25;;;8.50;98.20;;;;;;5031782;28;20032;-71
2022/03/17 01:40:15;;;;;;;61.45;35.08;;;8.50;98.30;;;;;;5029897;28;20029;-71
2022/03/17 01:42:41;;;;;;;54.42;34.40;;;8.60;98.20;;;;;;5029015;28;20543;-71
2022/03/17 01:45:08;;;;;;;60.67;35.20;;;8.60;98.10;;;;;;5028336;28;20029;-71
2022/03/17 01:47:33;;;;;;;59.72;34.95;;;8.60;98.10;;;;;;5029860;28;20128;-70
2022/03/17 01:50:03;;;;;;;59.42;34.92;;;8.60;98.10;;;;;;5021289;28;20535;-71
2022/03/17 01:52:29;;;;;;;60.17;32.90;;;8.60;98.00;;;;;;5028237;28;20099;-71
2022/03/17 01:54:55;;;;;;;56.03;35.38;;;8.40;98.10;;;;;;5030317;28;20037;-70
2022/03/17 01:57:22;;;;;;;58.38;33.97;;;8.40;98.30;;;;;;5030821;28;20124;-70
2022/03/17 01:59:49;;;;;;;54.50;31.75;;;8.40;98.30;;;;;;5027597;28;20116;-71
2022/03/17 02:02:15;;;;;;;55.70;33.42;;;8.40;98.30;;;;;;5030253;28;20132;-71
2022/03/17 02:04:41;;;;;;;56.53;33.13;;;8.30;98.30;;;;;;5026834;28;20105;-71
2022/03/17 02:07:08;;;;;;;63.05;33.85;;;8.30;98.40;;;;;;5026287;28;20494;-71
2022/03/17 02:09:35;;;;;;;53.90;34.25;;;8.30;98.40;;;;;;5030524;28;20033;-70
2022/03/17 02:15:01;;;;;;;57.72;32.83;;;8.20;98.60;;;;;;5024995;28;20497;-71
2022/03/17 02:17:31;;;;;;;63.58;34.35;;;8.10;98.60;;;;;;5028892;28;20476;-71
2022/03/17 02:20:01;;;;;;;63.22;35.30;;;8.10;98.70;;;;;;5028955;28;20042;-71
2022/03/17 02:22:28;;;;;;;60.70;33.47;;;8.20;98.80;;;;;;5028852;28;20029;-70
2022/03/17 02:27:46;;;;;;;57.25;34.78;;;8.20;98.80;;;;;;5029349;28;20122;-71
2022/03/17 02:30:14;;;;;;;57.40;31.15;;;8.10;98.90;;;;;;5028319;28;20189;-71
2022/03/17 02:32:40;;;;;;;62.03;33.85;;;8.00;99.00;;;;;;5028815;28;20403;-71
2022/03/17 02:35:09;;;;;;;60.35;33.40;;;7.90;99.00;;;;;;5025671;28;20668;-71
2022/03/17 02:37:35;;;;;;;58.58;33.72;;;7.90;99.10;;;;;;5031386;28;20033;-70
2022/03/17 02:40:04;;;;;;;56.40;34.13;;;7.80;99.10;;;;;;5018547;28;20060;-71
2022/03/17 02:42:30;;;;;;;56.55;33.25;;;7.90;99.20;;;;;;5030126;28;20021;-70
2022/03/17 02:45:00;;;;;;;58.92;33.53;;;7.90;99.20;;;;;;5029634;28;20453;-71
2022/03/17 02:47:27;;;;;;;58.67;33.30;;;7.80;99.30;;;;;;5022660;28;20395;-70
2022/03/17 02:49:55;;;;;;;62.72;35.33;;;7.80;99.40;;;;;;5021592;28;20025;-70
2022/03/17 02:52:22;;;;;;;57.70;35.75;;;7.80;99.60;;;;;;5029231;28;20045;-70
2022/03/17 02:54:48;;;;;;;58.88;32.75;;;7.80;99.60;;;;;;5029385;28;20039;-71
2022/03/17 02:57:14;;;;;;;58.78;33.78;;;7.90;99.40;;;;;;5027946;28;20033;-70
2022/03/17 02:59:40;;;;;;;52.17;32.40;;;7.90;99.20;;;;;;5020604;28;20052;-71
2022/03/17 03:02:05;;;;;;;59.47;32.35;;;7.60;99.50;;;;;;5026249;28;20053;-71
2022/03/17 03:04:34;;;;;;;58.70;33.72;;;7.60;99.80;;;;;;5023981;28;20498;-70
2022/03/17 03:07:06;;;;;;;61.72;33.50;;;7.50;99.70;;;;;;5024439;28;20116;-70
2022/03/17 03:09:32;;;;;;;59.65;32.33;;;7.50;99.80;;;;;;5028785;28;20029;-71
2022/03/17 03:11:58;;;;;;;59.22;34.72;;;7.60;99.90;;;;;;5029441;28;20402;-70
2022/03/17 03:14:25;;;;;;;56.22;33.03;;;7.60;99.70;;;;;;5024494;28;20125;-71
2022/03/17 03:16:50;;;;;;;61.80;33.40;;;7.60;99.70;;;;;;5036239;28;20029;-71
2022/03/17 03:19:16;;;;;;;55.45;32.20;;;7.70;99.80;;;;;;5029087;28;20452;-71
2022/03/17 03:21:43;;;;;;;55.50;33.47;;;7.60;99.70;;;;;;5035817;28;20041;-71
2022/03/17 03:24:10;;;;;;;58.92;33.88;;;7.50;99.80;;;;;;5031287;28;20078;-70
2022/03/17 03:26:36;;;;;;;49.78;30.90;;;7.60;99.90;;;;;;5032099;28;20464;-70
2022/03/17 03:29:08;;;;;;;58.13;31.45;;;7.70;99.80;;;;;;5030651;28;20617;-70
2022/03/17 03:31:34;;;;;;;57.55;32.78;;;7.60;99.80;;;;;;5025243;28;20404;-70
2022/03/17 03:34:00;;;;;;;55.80;28.75;;;7.60;99.70;;;;;;5030847;28;20086;-69
2022/03/17 03:39:10;;;;;;;54.00;31.48;;;7.60;99.60;;;;;;5029368;28;20632;-69
2022/03/17 03:41:36;;;;;;;51.95;29.48;;;7.60;99.60;;;;;;5029015;28;20042;-70
2022/03/17 03:44:02;;;;;;;54.88;32.00;;;7.50;99.70;;;;;;5032364;28;20037;-69
2022/03/17 03:46:29;;;;;;;50.45;30.13;;;7.50;99.70;;;;;;5025697;28;20717;-70
2022/03/17 03:48:54;;;;;;;57.10;31.67;;;7.50;99.70;;;;;;5019646;28;20061;-69
2022/03/17 03:51:20;;;;;;;53.67;29.90;;;7.50;99.90;;;;;;5017864;28;20120;-69
2022/03/17 03:56:31;;;;;;;56.95;32.30;;;7.60;99.80;;;;;;5019107;28;20138;-70
2022/03/17 03:58:59;;;;;;;51.33;29.50;;;7.70;99.60;;;;;;5025695;28;20029;-69
2022/03/17 04:01:25;;;;;;;53.35;28.83;;;7.60;99.50;;;;;;5030601;28;20049;-68
2022/03/17 04:03:52;;;;;;;59.30;31.92;;;7.50;99.50;;;;;;5029546;28;20030;-68
2022/03/17 04:06:18;;;;;;;55.75;32.25;;;7.60;99.60;;;;;;5028043;28;20030;-68
2022/03/17 04:08:43;;;;;;;58.35;31.02;;;7.50;99.70;;;;;;5027836;28;20087;-68
2022/03/17 04:11:09;;;;;;;60.35;32.95;;;7.50;99.80;;;;;;5030766;28;20083;-68
2022/03/17 04:13:35;;;;;;;58.60;31.63;;;7.50;99.80;;;;;;5030469;28;20037;-68
2022/03/17 04:16:01;;;;;;;55.13;31.15;;;7.50;99.90;;;;;;5030197;28;20041;-68
2022/03/17 04:18:26;;;;;;;57.63;31.10;;;7.50;99.90;;;;;;5026408;28;20414;-68
2022/03/17 04:20:52;;;;;;;56.97;32.30;;;7.50;99.90;;;;;;5026718;28;20087;-68
2022/03/17 04:23:18;;;;;;;61.55;32.28;;;7.60;99.90;;;;;;5027000;28;20025;-68
2022/03/17 04:25:43;;;;;;;52.63;30.40;;;7.60;99.90;;;;;;5027193;28;20025;-68
2022/03/17 04:28:09;;;;;;;59.10;32.80;;;7.50;99.90;;;;;;5024054;28;20037;-68
2022/03/17 04:30:36;;;;;;;61.67;32.75;;;7.50;99.90;;;;;;5023589;28;20032;-68
2022/03/17 04:33:02;;;;;;;59.90;33.65;;;7.60;99.90;;;;;;5024373;28;20809;-68
2022/03/17 04:35:28;;;;;;;56.22;32.03;;;7.60;99.90;;;;;;5024321;28;20021;-68
2022/03/17 04:37:53;;;;;;;64.30;35.80;;;7.70;99.90;;;;;;5022282;28;20099;-68
2022/03/17 04:40:19;;;;;;;63.88;33.22;;;7.70;99.90;;;;;;5021241;28;20029;-69
2022/03/17 04:42:45;;;;;;;55.47;32.58;;;7.70;99.90;;;;;;5016343;28;20036;-68
2022/03/17 04:45:10;;;;;;;64.63;36.22;;;7.70;99.90;;;;;;5023704;28;20105;-68
2022/03/17 04:47:36;;;;;;;57.15;34.00;;;7.80;99.90;;;;;;5025431;28;20067;-68
2022/03/17 04:50:02;;;;;;;61.00;35.47;;;7.80;99.80;;;;;;5023008;28;20068;-68
2022/03/17 04:55:12;;;;;;;59.50;36.65;;;7.80;99.90;;;;;;5024003;28;20692;-68
2022/03/17 04:57:38;;;;;;;63.75;35.65;;;8.10;99.70;;;;;;5020238;28;20030;-69
2022/03/17 05:00:06;;;;;;;59.17;35.75;;;8.10;99.50;;;;;;5024937;28;20029;-68
2022/03/17 05:02:31;;;;;;;63.20;34.05;;;8.00;99.50;;;;;;5024813;28;20029;-68
2022/03/17 05:04:57;;;;;;;59.42;34.83;;;8.10;99.60;;;;;;5023817;28;20035;-69
2022/03/17 05:07:22;;;;;;;56.60;32.20;;;7.90;99.50;;;;;;5024719;28;20025;-68
2022/03/17 05:09:48;;;;;;;59.30;32.97;;;7.80;99.90;;;;;;5023713;28;20095;-68
2022/03/17 05:12:14;;;;;;;59.03;33.80;;;7.80;99.90;;;;;;5024784;28;20033;-68
2022/03/17 05:14:40;;;;;;;63.97;38.15;;;7.80;99.90;;;;;;5022232;28;21206;-68
2022/03/17 05:17:06;;;;;;;68.25;38.45;;;8.10;99.90;;;;;;5025439;28;20072;-68
2022/03/17 05:19:31;;;;;;;62.88;36.85;;;8.30;99.50;;;;;;5020532;28;20058;-68
2022/03/17 05:21:57;;;;;;;67.47;35.95;;;8.30;99.30;;;;;;5021700;28;20080;-68
2022/03/17 05:24:22;;;;;;;57.47;35.40;;;8.40;99.20;;;;;;5018990;28;20048;-68
2022/03/17 05:26:48;;;;;;;62.03;34.25;;;8.40;99.10;;;;;;5024549;28;20041;-68
2022/03/17 05:29:14;;;;;;;63.25;35.15;;;8.30;99.20;;;;;;5022979;28;20033;-68
2022/03/17 05:31:40;;;;;;;64.03;34.97;;;8.30;99.40;;;;;;5023031;28;20041;-68
2022/03/17 05:34:06;;;;;;;60.50;33.90;;;8.30;99.30;;;;;;5024136;28;20044;-68
2022/03/17 05:36:32;;;;;;;62.47;35.38;;;8.20;99.50;;;;;;5022502;28;20034;-68
2022/03/17 05:38:57;;;;;;;63.17;35.63;;;8.40;99.30;;;;;;5023417;28;20103;-68
2022/03/17 05:41:23;;;;;;;63.17;35.75;;;8.40;99.20;;;;;;5022064;28;20037;-68
2022/03/17 05:43:48;;;;;;;61.30;35.10;;;8.30;99.30;;;;;;5006803;28;20041;-68
2022/03/17 05:46:14;;;;;;;61.35;36.03;;;8.30;99.30;;;;;;5007071;28;20017;-68
2022/03/17 05:48:40;;;;;;;63.30;36.85;;;8.40;99.30;;;;;;5021036;28;20064;-68
2022/03/17 05:51:06;;;;;;;65.90;35.70;;;8.40;99.30;;;;;;5014288;28;20129;-68
2022/03/17 05:53:32;;;;;;;66.43;37.22;;;8.20;99.50;;;;;;5023538;28;20483;-68
2022/03/17 05:55:57;;;;;;;63.85;37.55;;;8.20;99.70;;;;;;5020649;28;20099;-68
2022/03/17 05:58:23;;;;;;;63.55;36.72;;;8.20;99.70;;;;;;5021936;28;20029;-68
2022/03/17 06:00:49;;;;;;;62.92;36.78;;;8.20;99.70;;;;;;5015077;28;20056;-68
2022/03/17 06:03:14;;;;;;;66.47;37.47;;;8.20;99.70;;;;;;5022544;28;20120;-68
2022/03/17 06:05:40;;;;;;;69.03;38.05;;;8.20;99.70;;;;;;5017950;28;20456;-68
2022/03/17 06:08:06;;;;;;;61.50;38.30;;;8.10;99.70;;;;;;5022826;28;20353;-68
2022/03/17 06:10:33;;;;;;;62.72;37.05;;;8.10;99.80;;;;;;5016345;28;20048;-68
2022/03/17 06:13:03;;;;;;;63.75;38.22;;;8.00;99.90;;;;;;5022132;28;20088;-68
2022/03/17 06:15:29;;;;;;;57.28;35.63;;;8.10;99.90;;;;;;5020474;28;20025;-68
2022/03/17 06:17:59;;;;;;;62.40;36.45;;;8.20;99.90;;;;;;5023063;28;20025;-68
2022/03/17 06:20:27;;;;;;;63.65;36.85;;;8.10;99.90;;;;;;5019061;28;20053;-68
2022/03/17 06:22:56;;;;;;;59.47;35.97;;;8.10;99.90;;;;;;5018272;28;20037;-69
2022/03/17 06:25:23;;;;;;;60.78;36.80;;;8.20;99.90;;;;;;5020823;28;20393;-68
2022/03/17 06:27:49;;;;;;;63.15;35.67;;;8.20;99.80;;;;;;5017729;28;20044;-68
2022/03/17 06:30:20;;;;;;;65.72;39.65;;;8.20;99.90;;;;;;5022284;28;20043;-69
2022/03/17 06:32:47;;;;;;;67.43;37.75;;;8.20;99.90;;;;;;5016721;28;20052;-70
2022/03/17 06:35:17;;;;;;;62.03;37.38;;;8.20;99.90;;;;;;5022785;28;20034;-68
2022/03/17 06:37:48;;;;;;;73.68;40.17;;;8.20;99.90;;;;;;5015283;28;20168;-69
2022/03/17 06:40:17;;;;;;;68.68;38.42;;;8.30;99.90;;;;;;5016059;28;20925;-69
2022/03/17 06:42:44;;;;;;;58.83;35.03;;;8.30;99.70;;;;;;5020532;28;20048;-69
2022/03/17 06:45:10;;;;;;;73.78;38.03;;;8.50;99.80;;;;;;5021931;28;20107;-69
2022/03/17 06:47:36;;;;;;;62.42;38.45;;;8.50;99.40;;;;;;5023146;28;20049;-70
2022/03/17 06:50:03;;;;;;;70.43;41.10;;;8.50;99.50;;;;;;5015847;28;20090;-69
2022/03/17 06:52:29;;;;;;;64.28;38.00;;;8.60;99.60;;;;;;5019570;28;20034;-69
2022/03/17 06:54:55;;;;;;;62.85;37.85;;;8.60;99.70;;;;;;5020590;28;20032;-69
2022/03/17 06:57:22;;;;;;;66.53;40.08;;;8.60;99.80;;;;;;5022738;28;20040;-69
2022/03/17 06:59:48;;;;;;;66.38;39.63;;;8.60;99.70;;;;;;5022297;28;20033;-69
2022/03/17 07:02:14;;;;;;;61.47;38.05;;;8.70;99.60;;;;;;5021667;28;20110;-69
2022/03/17 07:04:41;;;;;;;69.80;40.92;;;8.70;99.50;;;;;;5021457;28;20037;-69
2022/03/17 07:07:07;;;;;;;61.80;37.95;;;8.80;99.60;;;;;;5022265;28;20037;-69
2022/03/17 07:09:33;;;;;;;58.20;36.83;;;8.70;99.70;;;;;;5022208;28;20034;-70
2022/03/17 07:11:59;;;;;;;64.10;39.20;;;8.60;99.90;;;;;;5020812;28;20192;-69
2022/03/17 07:14:25;;;;;;;64.20;40.40;;;8.60;99.90;;;;;;5022308;28;20112;-69
2022/03/17 07:16:50;;;;;;;63.80;37.67;;;8.60;99.90;;;;;;5016959;28;21144;-69
2022/03/17 07:19:16;;;;;;;68.00;39.00;;;8.70;99.70;;;;;;5008383;28;20625;-69
2022/03/17 07:21:42;;;;;;;70.35;38.97;;;8.80;99.50;;;;;;5022054;28;20034;-69
2022/03/17 07:24:09;;;;;;;67.10;40.25;;;8.90;99.20;;;;;;5020499;28;20022;-69
2022/03/17 07:26:35;;;;;;;66.53;39.30;;;8.90;99.20;;;;;;5022082;28;20030;-69
2022/03/17 07:29:02;;;;;;;67.35;38.58;;;8.90;99.30;;;;;;5017264;28;20687;-69
2022/03/17 07:31:28;;;;;;;64.32;40.03;;;9.10;99.40;;;;;;5019092;28;20040;-69
2022/03/17 07:33:54;;;;;;;71.80;42.40;;;9.10;99.30;;;;;;5020823;28;20029;-69
2022/03/17 07:36:21;;;;;;;69.20;41.45;;;8.90;99.60;;;;;;5021942;28;20798;-69
2022/03/17 07:38:47;;;;;;;75.93;44.45;;;8.90;99.70;;;;;;5022026;28;20105;-68
2022/03/17 07:41:14;;;;;;;71.25;41.05;;;8.90;99.50;;;;;;5021959;28;20241;-69
2022/03/17 07:43:41;;;;;;;71.07;40.45;;;9.10;99.50;;;;;;5015223;28;20487;-69
2022/03/17 07:46:07;;;;;;;62.50;39.33;;;9.10;99.10;;;;;;5005883;28;20502;-69
2022/03/17 07:48:33;;;;;;;65.60;39.60;;;9.10;99.30;;;;;;5017212;28;20101;-68
2022/03/17 07:50:59;;;;;;;62.70;39.42;;;9.30;99.10;;;;;;5014461;28;20037;-70
2022/03/17 07:53:24;;;;;;;62.45;39.15;;;9.40;98.80;;;;;;5010832;28;20438;-69
2022/03/17 07:55:54;;;;;;;68.40;39.47;;;9.40;98.70;;;;;;5011293;28;20049;-69
2022/03/17 07:58:24;;;;;;;67.97;40.15;;;9.30;98.90;;;;;;5008430;28;20132;-70
2022/03/17 08:00:52;;;;;;;75.28;41.03;;;9.30;98.60;;;;;;5010150;28;20053;-69
2022/03/17 08:03:19;;;;;;;74.30;40.00;;;9.40;98.90;;;;;;5013986;28;20803;-69
2022/03/17 08:05:48;;;;;;;66.07;39.35;;;9.50;98.70;;;;;;5010439;28;20089;-69
2022/03/17 08:08:17;;;;;;;69.00;38.40;;;9.80;98.50;;;;;;5010997;28;20112;-70
2022/03/17 08:10:43;;;;;;;94.32;44.75;;;9.80;98.00;;;;;;5018236;28;20383;-69
2022/03/17 08:13:09;;;;;;;70.25;38.90;;;9.80;98.00;;;;;;5016691;28;20037;-70
2022/03/17 08:15:36;;;;;;;67.57;40.35;;;9.80;98.20;;;;;;5015679;28;20155;-70
2022/03/17 08:18:09;;;;;;;67.32;39.10;;;9.70;98.40;;;;;;5012814;28;20077;-69
2022/03/17 08:20:39;;;;;;;62.75;37.58;;;9.70;98.10;;;;;;5024984;28;20033;-69
2022/03/17 08:23:08;;;;;;;67.65;38.78;;;9.80;97.70;;;;;;5026203;28;20034;-69
2022/03/17 08:25:35;;;;;;;70.53;40.38;;;9.90;97.70;;;;;;5026616;28;20115;-69
2022/03/17 08:28:04;;;;;;;70.85;39.97;;;10.10;97.60;;;;;;5022525;28;22134;-69
2022/03/17 08:30:32;;;;;;;68.82;40.70;;;10.30;97.70;;;;;;5025640;28;20029;-69
2022/03/17 08:32:58;;;;;;;60.85;39.63;;;10.20;97.20;;;;;;5025011;28;20049;-70
2022/03/17 08:35:25;;;;;;;67.45;41.00;;;10.10;97.40;;;;;;5025920;28;20038;-70
2022/03/17 08:37:51;;;;;;;67.57;37.22;;;10.20;97.50;;;;;;5022977;28;20034;-69
2022/03/17 08:40:17;;;;;;;76.00;41.38;;;10.20;97.60;;;;;;5026253;28;20048;-69
2022/03/17 08:42:43;;;;;;;64.95;41.80;;;10.30;97.60;;;;;;5025793;28;20029;-70
2022/03/17 08:50:39;;;;;;;69.28;39.53;;;10.40;97.40;;;;;;5023138;28;20283;-70
2022/03/17 08:53:05;;;;;;;63.65;39.83;;;10.60;97.50;;;;;;5024352;28;20041;-70
2022/03/17 08:55:31;;;;;;;64.53;40.80;;;10.60;96.90;;;;;;5021822;28;20037;-69
2022/03/17 08:57:57;;;;;;;70.15;39.17;;;10.70;96.80;;;;;;5023452;28;20037;-70
2022/03/17 09:00:23;;;;;;;65.18;38.55;;;10.80;96.80;;;;;;5021703;28;20103;-69
2022/03/17 09:02:49;;;;;;;59.38;38.20;;;10.70;96.80;;;;;;5025068;28;20095;-69
2022/03/17 09:05:16;;;;;;;65.38;39.83;;;10.80;97.10;;;;;;5025516;28;20672;-69
2022/03/17 09:07:42;;;;;;;64.22;38.15;;;10.80;96.70;;;;;;5024939;28;20099;-69
2022/03/17 09:10:08;;;;;;;67.07;40.53;;;10.90;96.60;;;;;;5023970;28;20621;-70
2022/03/17 09:12:35;;;;;;;64.63;36.30;;;11.00;96.30;;;;;;5019747;28;20480;-69
2022/03/17 09:15:00;;;;;;;64.20;36.38;;;11.10;96.10;;;;;;5024846;28;20055;-70
2022/03/17 09:17:26;;;;;;;65.43;38.25;;;11.10;96.00;;;;;;5024792;28;20029;-69
2022/03/17 09:19:52;;;;;;;76.03;38.78;;;11.20;95.60;;;;;;5021558;28;20132;-69
2022/03/17 09:22:18;;;;;;;65.85;39.50;;;11.30;96.10;;;;;;5024002;28;20040;-70
2022/03/17 09:24:46;;;;;;;61.17;38.35;;;11.30;95.60;;;;;;5025247;28;20043;-70
2022/03/17 09:27:11;;;;;;;68.45;38.72;;;11.40;95.50;;;;;;5024031;28;20044;-69
2022/03/17 09:29:39;;;;;;;70.78;40.28;;;11.40;95.40;;;;;;5022052;28;20404;-70
2022/03/17 09:32:05;;;;;;;62.20;38.85;;;11.50;95.40;;;;;;5023703;28;20037;-70
2022/03/17 09:34:32;;;;;;;62.95;38.58;;;11.50;95.30;;;;;;5024295;28;20048;-70
2022/03/17 09:36:59;;;;;;;65.75;38.50;;;11.50;95.20;;;;;;5030750;28;20033;-70
2022/03/17 09:39:44;;;;;;;62.75;38.10;;;11.50;95.30;;;;;;5024344;28;20108;-70
2022/03/17 09:42:10;;;;;;;70.25;39.88;;;11.50;95.00;;;;;;5023461;28;20491;-69
2022/03/17 09:44:36;;;;;;;59.17;36.30;;;11.50;95.20;;;;;;5021667;28;20045;-70
2022/03/17 09:47:03;;;;;;;61.53;36.53;;;11.60;94.90;;;;;;5023287;28;20590;-69
2022/03/17 09:49:30;;;;;;;62.63;38.00;;;11.70;94.70;;;;;;5024669;28;20393;-70
2022/03/17 09:51:58;;;;;;;65.20;38.25;;;11.80;95.00;;;;;;5023828;28;20029;-70
2022/03/17 09:54:24;;;;;;;56.85;37.00;;;12.00;94.50;;;;;;5024087;28;20371;-70
2022/03/17 09:56:49;;;;;;;59.25;34.75;;;11.80;94.10;;;;;;5022843;28;20026;-70
2022/03/17 09:59:15;;;;;;;61.38;37.45;;;11.80;94.40;;;;;;5023801;28;20044;-69
2022/03/17 10:01:42;;;;;;;57.92;36.05;;;11.80;94.40;;;;;;5018475;28;20515;-71
2022/03/17 10:04:08;;;;;;;63.40;36.05;;;11.90;94.20;;;;;;5022281;28;20033;-69
2022/03/17 10:06:34;;;;;;;62.30;33.67;;;12.10;94.10;;;;;;5021780;28;20593;-69
2022/03/17 10:09:00;;;;;;;62.05;36.40;;;12.10;93.90;;;;;;5022951;28;20120;-70
2022/03/17 10:11:31;;;;;;;61.38;36.72;;;12.30;93.90;;;;;;5023597;28;20476;-70
2022/03/17 10:13:59;;;;;;;61.53;35.30;;;12.40;93.90;;;;;;5021481;28;20905;-69
2022/03/17 10:16:26;;;;;;;58.22;34.92;;;12.40;93.60;;;;;;5023495;28;20036;-70
2022/03/17 10:19:06;;;;;;;56.85;35.28;;;12.30;93.50;;;;;;5012835;28;20055;-70
2022/03/17 10:21:32;;;;;;;57.70;35.45;;;12.50;93.70;;;;;;5012497;28;20061;-70
2022/03/17 10:24:08;;;;;;;57.42;34.78;;;12.50;93.30;;;;;;5023056;28;20566;-70
2022/03/17 10:26:43;;;;;;;73.30;37.65;;;12.50;93.30;;;;;;5022730;28;20074;-70
2022/03/17 10:29:13;;;;;;;55.95;36.33;;;12.80;93.40;;;;;;5019383;28;20095;-70
2022/03/17 10:31:56;;;;;;;58.78;34.50;;;12.80;93.00;;;;;;5013176;28;20044;-70
2022/03/17 10:34:26;;;;;;;64.68;35.78;;;12.80;93.20;;;;;;5013781;28;20160;-70
2022/03/17 10:37:07;;;;;;;64.90;33.28;;;12.90;93.00;;;;;;5012975;28;21066;-70
2022/03/17 10:39:37;;;;;;;65.80;41.15;;;12.80;93.00;;;;;;5018717;28;20025;-70
2022/03/17 10:42:09;;;;;;;56.22;34.28;;;12.80;93.00;;;;;;5022732;28;20037;-70
2022/03/17 10:44:39;;;;;;;58.22;35.15;;;12.80;92.90;;;;;;5023000;28;20029;-70
2022/03/17 10:47:05;;;;;;;52.78;32.95;;;12.90;92.80;;;;;;5022108;28;20124;-70
2022/03/17 10:49:31;;;;;;;54.45;35.70;;;13.00;92.90;;;;;;5023322;28;20108;-70
2022/03/17 10:51:57;;;;;;;63.63;34.58;;;13.10;92.80;;;;;;5023409;28;20109;-70
2022/03/17 10:54:24;;;;;;;54.47;34.25;;;12.90;92.90;;;;;;5020086;28;20076;-71
2022/03/17 10:57:01;;;;;;;58.67;34.67;;;12.90;92.70;;;;;;5018439;28;20039;-70
2022/03/17 10:59:37;;;;;;;53.20;35.70;;;13.00;92.60;;;;;;5023056;28;20499;-70
2022/03/17 11:02:08;;;;;;;61.50;35.72;;;13.00;92.40;;;;;;5023175;28;20128;-70
2022/03/17 11:04:35;;;;;;;52.88;34.10;;;13.20;93.00;;;;;;5022012;28;20506;-71
2022/03/17 11:07:10;;;;;;;59.40;34.50;;;13.20;92.30;;;;;;5020994;28;20498;-70
2022/03/17 11:09:40;;;;;;;55.20;32.67;;;13.30;92.40;;;;;;5022088;28;20365;-70
2022/03/17 11:12:10;;;;;;;55.30;34.78;;;13.60;92.10;;;;;;5023376;28;20042;-70
2022/03/17 11:14:47;;;;;;;55.83;33.35;;;13.40;92.10;;;;;;5022889;28;20117;-70
2022/03/17 11:17:21;;;;;;;59.70;34.13;;;13.50;92.10;;;;;;5020098;28;20040;-71
2022/03/17 11:19:48;;;;;;;63.70;36.92;;;13.70;91.90;;;;;;5007273;28;20068;-71
2022/03/17 11:22:16;;;;;;;55.42;36.45;;;13.70;92.10;;;;;;5011735;28;20407;-70
2022/03/17 11:24:42;;;;;;;55.42;33.35;;;13.70;91.80;;;;;;5021294;28;20045;-70
2022/03/17 11:27:12;;;;;;;48.75;31.35;;;13.60;91.60;;;;;;5020735;28;20033;-70
2022/03/17 11:29:39;;;;;;;52.42;31.83;;;13.80;91.70;;;;;;5022843;28;20034;-71
2022/03/17 11:32:08;;;;;;;50.60;32.20;;;13.70;91.50;;;;;;5021753;28;20033;-70
2022/03/17 11:34:47;;;;;;;54.60;32.40;;;13.90;91.80;;;;;;5022879;28;20029;-71
2022/03/17 11:37:15;;;;;;;52.42;31.90;;;14.10;91.30;;;;;;5026284;28;20526;-70
2022/03/17 11:39:48;;;;;;;60.70;31.88;;;14.00;91.40;;;;;;5027061;28;20034;-70
2022/03/17 11:42:34;;;;;;;52.10;33.15;;;14.20;91.50;;;;;;5028309;28;20029;-70
2022/03/17 11:45:15;;;;;;;48.55;31.05;;;14.50;91.40;;;;;;5021557;28;20471;-70
2022/03/17 11:47:47;;;;;;;51.03;31.00;;;14.40;90.90;;;;;;5029963;28;20105;-71
2022/03/17 11:50:33;;;;;;;51.83;32.33;;;14.30;91.10;;;;;;5029762;28;20029;-70
2022/03/17 11:53:04;;;;;;;52.67;34.70;;;14.40;91.30;;;;;;5023578;28;20041;-70
2022/03/17 11:55:33;;;;;;;59.60;38.92;;;14.40;91.20;;;;;;5028321;28;20026;-70
2022/03/17 11:58:19;;;;;;;58.50;33.78;;;14.30;91.10;;;;;;5027449;28;20025;-70
2022/03/17 12:00:52;;;;;;;53.30;32.58;;;14.30;91.20;;;;;;5025249;28;20049;-70
2022/03/17 12:03:28;;;;;;;64.35;36.03;;;14.40;91.00;;;;;;5028030;28;20026;-70
2022/03/17 12:06:17;;;;;;;56.67;34.42;;;14.50;91.00;;;;;;5025119;28;20041;-70
2022/03/17 12:08:55;;;;;;;53.85;32.67;;;14.50;91.00;;;;;;5028929;28;20040;-70
2022/03/17 12:11:25;;;;;;;59.75;35.50;;;14.50;90.80;;;;;;5028869;28;20411;-70
2022/03/17 12:14:20;;;;;;;50.65;32.25;;;14.70;91.10;;;;;;5023253;28;20033;-70
2022/03/17 12:17:05;;;;;;;50.47;29.52;;;14.80;91.00;;;;;;5028651;28;20045;-70
2022/03/17 12:19:39;;;;;;;50.03;31.65;;;14.90;90.60;;;;;;5026775;28;20124;-70
2022/03/17 12:22:07;;;;;;;51.10;32.42;;;15.00;90.90;;;;;;5028506;28;20143;-70
2022/03/17 12:24:47;;;;;;;58.97;33.88;;;15.00;90.60;;;;;;5025082;28;20067;-70
2022/03/17 12:27:22;;;;;;;53.55;31.85;;;15.10;91.10;;;;;;5029332;28;20021;-70
2022/03/17 12:30:11;;;;;;;60.38;33.75;;;15.00;90.60;;;;;;5029016;28;20499;-70
2022/03/17 12:32:45;;;;;;;56.95;31.77;;;15.00;90.60;;;;;;5023988;28;20084;-70
2022/03/17 12:35:11;;;;;;;55.63;33.08;;;15.00;90.60;;;;;;5027494;28;20364;-70
2022/03/17 12:37:39;;;;;;;51.63;31.77;;;14.90;90.40;;;;;;5029205;28;20468;-70
2022/03/17 12:40:19;;;;;;;56.72;32.17;;;15.00;90.90;;;;;;5028480;28;20033;-70
2022/03/17 12:42:47;;;;;;;70.55;36.00;;;15.00;90.40;;;;;;5027706;28;20171;-69
2022/03/17 12:45:15;;;;;;;58.00;34.67;;;15.20;90.50;;;;;;5028485;28;20112;-69
2022/03/17 12:47:43;;;;;;;57.20;33.53;;;15.20;90.40;;;;;;5027365;28;20034;-70
2022/03/17 12:50:11;;;;;;;59.70;33.95;;;15.20;90.50;;;;;;5028249;28;20537;-69
2022/03/17 12:52:40;;;;;;;51.97;29.70;;;15.10;90.00;;;;;;5026065;28;20077;-70
2022/03/17 12:55:09;;;;;;;66.30;33.88;;;15.10;89.50;;;;;;5025002;28;20105;-69